Terminal Aerodrome Forecast
Issued by NWS Sterling, VA

Home | Current Version | Previous Version | Text Only | Print | Product List | Glossary On
Versions: 1 2 3 4 5 6 7 8 9 10 11 12 13 14 15 16 17 18 19 20 21
622
FTUS41 KLWX 052333
TAFCHO
TAF
KCHO 052333Z 0600/0624 02004KT P6SM OVC050
     FM060200 VRB03KT P6SM OVC025
     FM060400 VRB03KT P6SM -SHRA OVC010
     FM061000 35005KT P6SM -SHRA OVC015
     FM061400 36006KT 3SM SHRA OVC025
     FM062200 35006KT 6SM BR OVC040=

USA.gov is the U.S. government's official web portal to all federal, state and local government web resources and services.